Time;durP1;ratioP1;P1;durP2;ratioP2;P2;SDS_P1;SDS_P2;PMS_P1;PMS_P2;Temp;Humidity;BMP_temperature;BMP_pressure;BME280_temperature;BME280_humidity;BME280_pressure;Samples;Min_cycle;Max_cycle;Signal;HPM_P1;HPM_P2
2022/06/04 00:00:58;;;;;;;0.10;0.10;;;11.50;99.90;;;;;;5072775;28;20041;-88
2022/06/04 00:03:26;;;;;;;0.10;0.10;;;11.50;99.90;;;;;;5055589;28;20040;-86
2022/06/04 00:05:55;;;;;;;0.10;0.10;;;11.40;99.90;;;;;;5039892;28;20043;-87
2022/06/04 00:08:22;;;;;;;0.20;0.20;;;11.40;99.90;;;;;;5056083;28;20037;-89
2022/06/04 00:16:23;;;;;;;;;;;11.30;99.90;;;;;;5089288;28;20532;-86
2022/06/04 00:18:50;;;;;;;0.10;0.10;;;11.40;99.90;;;;;;5070920;28;19966;-86
2022/06/04 00:21:17;;;;;;;0.20;0.20;;;11.30;99.90;;;;;;5072360;28;20040;-89
2022/06/04 00:23:44;;;;;;;0.10;0.10;;;11.30;99.90;;;;;;5071768;28;20569;-88
2022/06/04 00:26:15;;;;;;;0.10;0.10;;;11.30;99.90;;;;;;5055619;28;20037;-87
2022/06/04 00:28:42;;;;;;;0.30;0.30;;;11.30;99.90;;;;;;5071349;28;20502;-87
2022/06/04 00:31:09;;;;;;;0.32;0.32;;;11.30;99.90;;;;;;5054865;28;20041;-88
2022/06/04 00:33:36;;;;;;;0.10;0.10;;;11.30;99.90;;;;;;5055026;28;20045;-86
2022/06/04 00:36:04;;;;;;;0.10;0.10;;;11.30;99.90;;;;;;5051940;28;20049;-86
2022/06/04 00:38:32;;;;;;;0.10;0.10;;;11.30;99.90;;;;;;5051695;28;20037;-87
2022/06/04 00:41:20;;;;;;;0.20;0.20;;;11.30;99.90;;;;;;5051732;28;20056;-88
2022/06/04 00:44:10;;;;;;;0.25;0.25;;;11.30;99.90;;;;;;5051299;28;20041;-87
2022/06/04 00:46:40;;;;;;;0.10;0.10;;;11.30;99.90;;;;;;5051076;28;20053;-88
2022/06/04 00:49:13;;;;;;;0.32;0.30;;;11.30;99.90;;;;;;5051646;28;20042;-87
2022/06/04 00:51:43;;;;;;;0.10;0.10;;;11.30;99.90;;;;;;5051048;28;20064;-89
2022/06/04 00:54:10;;;;;;;0.08;0.08;;;11.30;99.90;;;;;;5051849;28;20081;-87
2022/06/04 00:56:54;;;;;;;0.17;0.17;;;11.30;99.90;;;;;;5051144;28;20518;-88
2022/06/04 00:59:21;;;;;;;0.10;0.10;;;11.30;99.90;;;;;;5051213;28;20059;-87
2022/06/04 01:02:02;;;;;;;0.10;0.10;;;11.30;99.90;;;;;;5050955;28;20041;-88
2022/06/04 01:05:01;;;;;;;0.13;0.13;;;11.30;99.90;;;;;;5051128;28;20158;-87
2022/06/04 01:07:49;;;;;;;0.47;0.17;;;11.20;99.90;;;;;;5067113;28;20412;-89
2022/06/04 01:10:22;;;;;;;0.20;0.20;;;11.30;99.90;;;;;;5051526;28;20038;-89
2022/06/04 01:13:16;;;;;;;0.20;0.20;;;11.30;99.90;;;;;;5050839;28;20080;-86
2022/06/04 01:16:02;;;;;;;0.20;0.20;;;11.20;99.90;;;;;;5052898;28;20037;-87
2022/06/04 01:18:29;;;;;;;0.10;0.10;;;11.20;99.90;;;;;;5070994;28;20066;-89
2022/06/04 01:21:08;;;;;;;0.65;0.30;;;11.20;99.90;;;;;;5087304;28;20398;-88
2022/06/04 01:23:53;;;;;;;0.20;0.20;;;11.20;99.90;;;;;;5070758;28;20044;-88
2022/06/04 01:26:48;;;;;;;0.10;0.10;;;11.20;99.90;;;;;;5070639;28;20043;-88
2022/06/04 01:29:18;;;;;;;0.13;0.13;;;11.20;99.90;;;;;;5086327;28;20083;-87
2022/06/04 01:32:02;;;;;;;0.47;0.38;;;11.20;99.90;;;;;;5071029;28;20072;-88
2022/06/04 01:34:38;;;;;;;0.10;0.10;;;11.10;99.90;;;;;;5070770;28;20084;-87
2022/06/04 01:37:12;;;;;;;0.10;0.10;;;11.10;99.90;;;;;;5070092;28;20071;-87
2022/06/04 01:42:33;;;;;;;0.20;0.20;;;11.10;99.90;;;;;;5087635;28;20521;-88
2022/06/04 01:45:04;;;;;;;0.43;0.15;;;11.10;99.90;;;;;;5055556;28;20048;-88
2022/06/04 01:47:32;;;;;;;0.10;0.10;;;11.10;99.90;;;;;;5090005;28;20044;-89
2022/06/04 01:50:01;;;;;;;0.35;0.30;;;11.10;99.90;;;;;;5090323;28;20036;-86
2022/06/04 01:52:37;;;;;;;0.20;0.20;;;11.00;99.90;;;;;;5057971;28;20032;-86
2022/06/04 01:55:14;;;;;;;0.25;0.20;;;11.10;99.90;;;;;;5073377;28;20055;-88
2022/06/04 01:58:01;;;;;;;0.08;0.08;;;11.00;99.90;;;;;;5073820;28;20041;-88
2022/06/04 02:00:34;;;;;;;0.00;0.00;;;11.00;99.90;;;;;;5090722;28;20110;-88
2022/06/04 02:03:09;;;;;;;0.10;0.10;;;11.00;99.90;;;;;;5073394;28;20531;-88
2022/06/04 02:05:47;;;;;;;0.13;0.13;;;11.00;99.90;;;;;;5073441;28;20037;-87
2022/06/04 02:08:19;;;;;;;0.20;0.20;;;11.10;99.90;;;;;;5074101;28;20036;-88
2022/06/04 02:10:57;;;;;;;0.20;0.20;;;11.00;99.90;;;;;;5088001;28;20086;-86
2022/06/04 02:13:24;;;;;;;0.10;0.10;;;11.10;99.90;;;;;;5090670;28;20040;-87
2022/06/04 02:15:54;;;;;;;0.03;0.03;;;11.00;99.90;;;;;;5057258;28;20482;-86
2022/06/04 02:18:21;;;;;;;0.15;0.10;;;11.00;99.90;;;;;;5090451;28;20055;-88
2022/06/04 02:20:47;;;;;;;0.13;0.10;;;11.00;99.90;;;;;;5056917;28;20131;-87
2022/06/04 02:23:15;;;;;;;0.10;0.10;;;11.00;99.90;;;;;;5073712;28;20040;-86
2022/06/04 02:25:42;;;;;;;0.17;0.13;;;10.90;99.90;;;;;;5090208;28;20035;-86
2022/06/04 02:28:09;;;;;;;0.13;0.13;;;10.90;99.90;;;;;;5048098;28;20070;-88
2022/06/04 02:30:51;;;;;;;0.10;0.10;;;11.00;99.90;;;;;;5073575;28;20093;-86
2022/06/04 02:33:42;;;;;;;0.10;0.10;;;10.90;99.90;;;;;;5089952;28;20127;-88
2022/06/04 02:36:19;;;;;;;0.10;0.10;;;10.90;99.90;;;;;;5073257;28;20298;-88
2022/06/04 02:38:58;;;;;;;0.15;0.15;;;10.90;99.90;;;;;;5078340;28;20040;-88
2022/06/04 02:41:30;;;;;;;0.05;0.05;;;10.90;99.90;;;;;;5085439;28;20634;-87
2022/06/04 02:44:31;;;;;;;0.10;0.10;;;10.90;99.90;;;;;;5110065;28;20043;-88
2022/06/04 02:47:11;;;;;;;0.30;0.10;;;10.80;99.90;;;;;;5050480;28;20040;-86
2022/06/04 02:49:56;;;;;;;0.20;0.20;;;10.90;99.90;;;;;;5084583;28;20036;-88
2022/06/04 02:52:24;;;;;;;0.20;0.20;;;10.90;99.90;;;;;;5076584;28;20070;-86
2022/06/04 02:55:02;;;;;;;0.10;0.10;;;10.80;99.90;;;;;;5059926;28;20114;-87
2022/06/04 02:57:32;;;;;;;0.28;0.28;;;10.80;99.90;;;;;;5076796;28;20102;-87
2022/06/04 03:00:01;;;;;;;0.13;0.10;;;10.90;99.90;;;;;;5078203;28;20123;-87
2022/06/04 03:02:31;;;;;;;0.17;0.17;;;10.80;99.90;;;;;;5093896;28;20047;-85
2022/06/04 03:05:07;;;;;;;0.10;0.10;;;10.80;99.90;;;;;;5093133;28;20704;-85
2022/06/04 03:07:33;;;;;;;0.10;0.10;;;10.90;99.90;;;;;;5093625;28;20040;-85
2022/06/04 03:10:10;;;;;;;0.00;0.00;;;10.80;99.90;;;;;;5075420;28;20033;-87
2022/06/04 03:12:36;;;;;;;0.10;0.10;;;10.80;99.90;;;;;;5093047;28;20764;-86
2022/06/04 03:15:04;;;;;;;0.10;0.10;;;11.00;99.90;;;;;;5093383;28;20079;-86
2022/06/04 03:17:30;;;;;;;0.13;0.13;;;10.80;99.90;;;;;;5060230;28;20083;-86
2022/06/04 03:19:58;;;;;;;0.20;0.20;;;10.80;99.90;;;;;;5059720;28;20040;-85
2022/06/04 03:22:25;;;;;;;0.25;0.25;;;10.80;99.90;;;;;;5060015;28;20044;-87
2022/06/04 03:24:51;;;;;;;0.10;0.10;;;10.70;99.90;;;;;;5060057;28;20047;-87
2022/06/04 03:27:18;;;;;;;0.10;0.10;;;10.70;99.90;;;;;;5059598;28;20116;-86
2022/06/04 03:29:46;;;;;;;0.10;0.10;;;10.80;99.90;;;;;;5076565;28;20067;-85
2022/06/04 03:32:12;;;;;;;0.00;0.00;;;10.80;99.90;;;;;;5059719;28;20040;-85
2022/06/04 03:34:39;;;;;;;0.10;0.10;;;10.80;99.90;;;;;;5059619;28;20933;-86
2022/06/04 03:37:06;;;;;;;0.10;0.10;;;10.80;99.90;;;;;;5059829;28;20135;-86
2022/06/04 03:39:32;;;;;;;0.40;0.20;;;10.70;99.90;;;;;;5076204;28;20048;-86
2022/06/04 03:42:01;;;;;;;0.10;0.10;;;10.80;99.90;;;;;;5092390;28;20082;-86
2022/06/04 03:44:28;;;;;;;0.10;0.10;;;10.80;99.90;;;;;;5075829;28;20401;-86
2022/06/04 03:46:55;;;;;;;0.20;0.20;;;10.80;99.90;;;;;;5058896;28;20060;-85
2022/06/04 03:49:22;;;;;;;0.10;0.10;;;10.80;99.90;;;;;;5059693;28;20087;-87
2022/06/04 03:51:49;;;;;;;0.10;0.10;;;10.80;99.90;;;;;;5055216;28;20037;-87
2022/06/04 03:54:15;;;;;;;0.22;0.20;;;10.80;99.90;;;;;;5055622;28;20091;-87
2022/06/04 03:56:42;;;;;;;0.20;0.20;;;10.80;99.90;;;;;;5056135;28;20091;-87
2022/06/04 03:59:09;;;;;;;0.10;0.10;;;10.80;99.90;;;;;;5056104;28;20044;-85
2022/06/04 04:01:35;;;;;;;0.08;0.08;;;10.80;99.90;;;;;;5093035;28;20051;-88
2022/06/04 04:04:03;;;;;;;0.10;0.10;;;10.80;99.90;;;;;;5058769;28;20079;-87
2022/06/04 04:06:32;;;;;;;0.25;0.25;;;10.90;99.90;;;;;;5076114;28;20079;-86
2022/06/04 04:08:59;;;;;;;0.10;0.10;;;10.90;99.90;;;;;;5075702;28;20033;-88
2022/06/04 04:11:27;;;;;;;0.10;0.10;;;10.90;99.90;;;;;;5073411;28;20128;-86
2022/06/04 04:13:54;;;;;;;0.10;0.10;;;10.90;99.90;;;;;;5055723;28;20127;-86
2022/06/04 04:16:22;;;;;;;0.20;0.20;;;10.90;99.90;;;;;;5071999;28;20128;-86
2022/06/04 04:18:49;;;;;;;0.10;0.10;;;10.90;99.90;;;;;;5056004;28;20073;-85
2022/06/04 04:21:19;;;;;;;0.20;0.20;;;10.90;99.90;;;;;;5075399;28;20072;-88
2022/06/04 04:23:46;;;;;;;0.10;0.10;;;11.00;99.90;;;;;;5092206;28;20052;-86
2022/06/04 04:26:14;;;;;;;0.10;0.10;;;11.00;99.90;;;;;;5092097;28;20044;-86
2022/06/04 04:28:41;;;;;;;0.10;0.10;;;11.00;99.90;;;;;;5092356;28;20534;-86
2022/06/04 04:31:14;;;;;;;0.10;0.10;;;11.00;99.90;;;;;;5058120;28;20033;-87
2022/06/04 04:33:41;;;;;;;0.20;0.10;;;11.10;99.90;;;;;;5071849;28;20127;-87
2022/06/04 04:36:08;;;;;;;0.75;0.55;;;11.10;99.90;;;;;;5055344;28;20110;-85
2022/06/04 04:38:35;;;;;;;0.00;0.00;;;11.10;99.90;;;;;;5055456;28;20041;-87
2022/06/04 04:41:07;;;;;;;0.10;0.10;;;11.10;99.90;;;;;;5082715;28;20051;-84
2022/06/04 04:43:34;;;;;;;0.10;0.10;;;11.20;99.90;;;;;;5074662;28;20041;-88
2022/06/04 04:46:03;;;;;;;0.20;0.20;;;11.20;99.90;;;;;;5074967;28;20048;-87
2022/06/04 04:48:30;;;;;;;0.10;0.10;;;11.20;99.90;;;;;;5074563;28;20044;-87
2022/06/04 04:50:57;;;;;;;0.10;0.10;;;11.30;99.90;;;;;;5074906;28;20119;-87
2022/06/04 04:53:23;;;;;;;0.10;0.10;;;11.30;99.90;;;;;;5058244;28;20048;-85
2022/06/04 04:55:51;;;;;;;0.10;0.10;;;11.30;99.90;;;;;;5091188;28;20385;-85
2022/06/04 04:58:17;;;;;;;0.25;0.20;;;11.40;99.90;;;;;;5057935;28;20508;-86
2022/06/04 05:00:44;;;;;;;0.10;0.10;;;11.40;99.90;;;;;;5074791;28;20127;-85
2022/06/04 05:03:11;;;;;;;0.05;0.05;;;11.40;99.90;;;;;;5073873;28;20041;-86
2022/06/04 05:05:38;;;;;;;0.55;0.20;;;11.50;99.90;;;;;;5057725;28;20441;-86
2022/06/04 05:08:05;;;;;;;0.20;0.20;;;11.60;99.90;;;;;;5038268;28;20482;-85
2022/06/04 05:10:32;;;;;;;0.10;0.10;;;11.50;99.90;;;;;;5065655;28;20032;-87
2022/06/04 05:12:59;;;;;;;0.20;0.20;;;11.60;99.90;;;;;;5070113;28;20530;-87
2022/06/04 05:15:26;;;;;;;0.20;0.20;;;11.60;99.90;;;;;;5058089;28;20044;-86
2022/06/04 05:17:52;;;;;;;0.32;0.32;;;11.70;99.90;;;;;;5058108;28;20043;-86
2022/06/04 05:20:19;;;;;;;0.20;0.20;;;11.70;99.90;;;;;;5074157;28;20036;-86
2022/06/04 05:22:46;;;;;;;0.10;0.10;;;11.70;99.90;;;;;;5058315;28;20070;-86
2022/06/04 05:25:13;;;;;;;0.70;0.30;;;11.80;99.90;;;;;;5090720;28;20048;-87
2022/06/04 05:27:39;;;;;;;0.20;0.20;;;11.80;99.90;;;;;;5074518;28;20033;-88
2022/06/04 05:30:07;;;;;;;0.10;0.10;;;11.90;99.90;;;;;;5057904;28;20389;-87
2022/06/04 05:32:34;;;;;;;0.10;0.10;;;11.90;99.90;;;;;;5067501;28;20094;-86
2022/06/04 05:35:01;;;;;;;0.30;0.30;;;11.90;99.90;;;;;;5057826;28;20044;-88
2022/06/04 05:37:28;;;;;;;0.17;0.17;;;12.00;99.90;;;;;;5057561;28;20113;-86
2022/06/04 05:39:54;;;;;;;1.38;0.17;;;12.10;99.90;;;;;;5073911;28;20040;-85
2022/06/04 05:42:21;;;;;;;0.20;0.20;;;12.10;99.90;;;;;;5056209;28;20506;-87
2022/06/04 05:44:48;;;;;;;0.15;0.15;;;12.20;99.90;;;;;;5090646;28;20094;-86
2022/06/04 05:47:14;;;;;;;0.10;0.10;;;12.20;99.90;;;;;;5057361;28;20044;-87
2022/06/04 05:49:41;;;;;;;0.10;0.10;;;12.20;99.90;;;;;;5074024;28;20127;-86
2022/06/04 05:52:08;;;;;;;0.10;0.10;;;12.30;99.90;;;;;;5057436;28;20073;-85
2022/06/04 05:54:35;;;;;;;0.10;0.10;;;12.40;99.90;;;;;;5074222;28;20094;-86
2022/06/04 05:57:02;;;;;;;0.25;0.10;;;12.40;99.90;;;;;;5074172;28;20044;-86
2022/06/04 05:59:28;;;;;;;0.00;0.00;;;12.40;99.90;;;;;;5090241;28;20406;-86
2022/06/04 06:01:55;;;;;;;0.10;0.10;;;12.50;99.90;;;;;;5057199;28;20111;-86
2022/06/04 06:04:25;;;;;;;0.10;0.10;;;12.60;99.90;;;;;;5050351;28;20402;-88
2022/06/04 06:06:52;;;;;;;0.63;0.28;;;12.60;99.90;;;;;;5070041;28;20383;-85
2022/06/04 06:09:22;;;;;;;0.22;0.10;;;12.70;99.90;;;;;;5037267;28;20044;-87
2022/06/04 06:11:50;;;;;;;0.30;0.20;;;12.70;99.90;;;;;;5073476;28;20067;-86
2022/06/04 06:14:18;;;;;;;0.20;0.20;;;12.80;99.90;;;;;;5073285;28;20036;-86
2022/06/04 06:16:48;;;;;;;0.00;0.00;;;12.80;99.90;;;;;;5077592;28;20093;-88
2022/06/04 06:19:16;;;;;;;0.30;0.20;;;12.80;99.90;;;;;;5066499;28;20044;-88
2022/06/04 06:21:44;;;;;;;0.15;0.15;;;12.90;99.90;;;;;;5057364;28;20048;-87
2022/06/04 06:24:12;;;;;;;0.20;0.15;;;12.90;99.90;;;;;;5057040;28;20426;-86
2022/06/04 06:26:48;;;;;;;0.10;0.10;;;12.90;99.90;;;;;;5061207;28;20068;-88
2022/06/04 06:29:17;;;;;;;0.10;0.10;;;12.90;99.90;;;;;;5078150;28;20135;-87
2022/06/04 06:31:44;;;;;;;0.57;0.25;;;13.00;99.90;;;;;;5094199;28;20110;-89
2022/06/04 06:34:11;;;;;;;0.30;0.10;;;13.10;99.90;;;;;;5061315;28;20036;-91
2022/06/04 06:36:39;;;;;;;0.52;0.32;;;13.20;99.90;;;;;;5077554;28;20493;-89
2022/06/04 06:39:06;;;;;;;0.32;0.28;;;13.30;99.90;;;;;;5094362;28;20203;-88
2022/06/04 06:41:33;;;;;;;0.20;0.15;;;13.30;99.90;;;;;;5060706;28;20094;-88
2022/06/04 06:44:00;;;;;;;0.47;0.30;;;13.30;99.90;;;;;;5060800;28;20836;-88
2022/06/04 06:46:30;;;;;;;0.35;0.20;;;13.40;99.90;;;;;;5058814;28;20053;-87
2022/06/04 06:49:19;;;;;;;0.20;0.20;;;13.50;99.90;;;;;;5063781;28;20037;-87
2022/06/04 06:51:53;;;;;;;0.13;0.13;;;13.60;99.90;;;;;;5085025;28;20122;-86
2022/06/04 06:54:21;;;;;;;0.22;0.20;;;13.60;99.90;;;;;;5090685;28;20037;-88
2022/06/04 06:56:50;;;;;;;0.57;0.35;;;13.80;99.90;;;;;;5053494;28;20044;-88
2022/06/04 06:59:21;;;;;;;0.38;0.20;;;13.90;99.90;;;;;;5074196;28;20048;-88
2022/06/04 07:01:49;;;;;;;0.38;0.22;;;14.00;99.90;;;;;;5077284;28;20032;-87
2022/06/04 07:04:17;;;;;;;0.28;0.28;;;14.20;99.90;;;;;;5059847;28;20045;-89
2022/06/04 07:06:46;;;;;;;0.20;0.20;;;14.20;99.90;;;;;;5054895;28;20040;-88
2022/06/04 07:09:19;;;;;;;0.30;0.20;;;14.20;99.90;;;;;;5087186;28;20119;-87
2022/06/04 07:11:47;;;;;;;0.10;0.10;;;14.20;99.90;;;;;;5085319;28;20068;-87
2022/06/04 07:14:14;;;;;;;0.20;0.20;;;14.20;99.90;;;;;;5057137;28;20045;-88
2022/06/04 07:16:42;;;;;;;0.20;0.20;;;14.30;99.90;;;;;;5062132;28;20500;-88
2022/06/04 07:19:11;;;;;;;0.40;0.40;;;14.30;99.90;;;;;;5093522;28;20070;-87
2022/06/04 07:21:38;;;;;;;0.60;0.20;;;14.40;99.90;;;;;;5093360;28;20047;-88
2022/06/04 07:24:05;;;;;;;0.13;0.13;;;14.50;99.90;;;;;;5093121;28;20044;-87
2022/06/04 07:26:32;;;;;;;0.20;0.20;;;14.60;99.90;;;;;;5076249;28;20040;-88
2022/06/04 07:28:59;;;;;;;0.52;0.45;;;14.70;99.90;;;;;;5060334;28;20047;-88
2022/06/04 07:31:27;;;;;;;0.20;0.20;;;14.70;99.90;;;;;;5076947;28;20055;-88
2022/06/04 07:33:55;;;;;;;0.25;0.15;;;14.80;99.90;;;;;;5065719;28;20040;-83
2022/06/04 07:36:26;;;;;;;0.20;0.20;;;14.90;99.90;;;;;;5059184;28;20481;-82
2022/06/04 07:38:53;;;;;;;0.10;0.10;;;15.00;99.90;;;;;;5076680;28;20045;-84
2022/06/04 07:41:26;;;;;;;0.10;0.10;;;15.00;99.90;;;;;;5055557;28;20048;-84
2022/06/04 07:43:53;;;;;;;0.20;0.20;;;15.20;99.90;;;;;;5071975;28;20036;-85
2022/06/04 07:46:22;;;;;;;0.32;0.28;;;15.30;99.90;;;;;;5072117;28;20049;-84
2022/06/04 07:48:50;;;;;;;0.30;0.20;;;15.40;99.90;;;;;;5062266;28;20068;-84
2022/06/04 07:51:17;;;;;;;0.65;0.43;;;15.60;99.90;;;;;;5072489;28;20052;-84
2022/06/04 07:53:44;;;;;;;1.20;0.30;;;15.70;99.90;;;;;;5055595;28;20041;-86
2022/06/04 07:56:14;;;;;;;0.30;0.20;;;15.70;99.90;;;;;;5056072;28;20559;-84
2022/06/04 07:58:43;;;;;;;0.10;0.10;;;15.80;99.90;;;;;;5060402;28;20215;-85
2022/06/04 08:01:14;;;;;;;0.28;0.20;;;15.80;99.90;;;;;;5092012;28;20655;-86
2022/06/04 08:03:42;;;;;;;0.47;0.38;;;15.90;99.90;;;;;;5091846;28;20123;-88
2022/06/04 08:06:10;;;;;;;0.50;0.30;;;16.00;99.90;;;;;;5092135;28;20036;-87
2022/06/04 08:08:37;;;;;;;0.40;0.40;;;16.10;99.90;;;;;;5068701;28;20131;-86
2022/06/04 08:11:30;;;;;;;0.30;0.20;;;16.10;99.90;;;;;;5058841;28;20123;-84
2022/06/04 08:13:52;;;;;;;0.30;0.30;;;16.30;99.90;;;;;;5077540;28;20106;-83
2022/06/04 08:16:19;;;;;;;0.22;0.22;;;16.40;99.90;;;;;;5058897;28;20049;-84
2022/06/04 08:18:46;;;;;;;0.30;0.20;;;16.40;99.90;;;;;;5073112;28;20048;-86
2022/06/04 08:21:13;;;;;;;0.20;0.20;;;16.40;99.90;;;;;;5057625;28;20048;-86
2022/06/04 08:23:40;;;;;;;0.52;0.40;;;16.40;99.90;;;;;;5075277;28;20048;-87
2022/06/04 08:26:08;;;;;;;0.40;0.20;;;16.50;99.90;;;;;;5058378;28;20696;-87
2022/06/04 08:28:35;;;;;;;0.45;0.30;;;16.40;99.90;;;;;;5047265;28;20041;-87
2022/06/04 08:31:08;;;;;;;0.35;0.35;;;16.50;99.90;;;;;;5045779;28;20041;-87
2022/06/04 08:33:38;;;;;;;0.45;0.40;;;16.50;99.90;;;;;;5084131;28;20045;-87
2022/06/04 08:36:07;;;;;;;1.58;0.52;;;16.60;99.90;;;;;;5058443;28;20036;-85
2022/06/04 08:38:34;;;;;;;0.25;0.20;;;16.70;99.90;;;;;;5074329;28;20041;-86
2022/06/04 08:41:04;;;;;;;0.50;0.30;;;16.80;99.90;;;;;;5081246;28;20133;-87
2022/06/04 08:43:58;;;;;;;0.10;0.10;;;16.90;99.90;;;;;;5096295;28;20119;-87
2022/06/04 08:46:34;;;;;;;0.47;0.32;;;17.00;99.90;;;;;;5073776;28;20052;-87
2022/06/04 08:49:07;;;;;;;0.30;0.20;;;17.10;99.90;;;;;;5091277;28;20036;-89
2022/06/04 08:51:34;;;;;;;0.38;0.30;;;17.20;99.90;;;;;;5067114;28;20036;-87
2022/06/04 08:57:32;;;;;;;0.30;0.30;;;17.30;99.90;;;;;;5052587;28;20820;-86
2022/06/04 09:00:04;;;;;;;0.85;0.43;;;17.50;99.90;;;;;;5069517;28;20045;-87
2022/06/04 09:02:58;;;;;;;0.22;0.22;;;17.40;99.90;;;;;;5065503;28;20450;-85
2022/06/04 09:06:02;;;;;;;0.20;0.20;;;17.40;99.90;;;;;;5068022;28;20128;-87
2022/06/04 09:08:57;;;;;;;0.20;0.20;;;17.50;99.90;;;;;;5098328;28;20043;-86
2022/06/04 09:11:29;;;;;;;0.40;0.20;;;17.70;99.90;;;;;;5087487;28;20044;-86
2022/06/04 09:14:07;;;;;;;0.60;0.35;;;17.80;99.90;;;;;;5059402;28;20627;-88
2022/06/04 09:16:38;;;;;;;0.30;0.25;;;17.90;99.90;;;;;;5091573;28;20048;-87
2022/06/04 09:19:16;;;;;;;0.55;0.30;;;17.90;99.90;;;;;;5073716;28;20078;-86
2022/06/04 09:21:43;;;;;;;0.32;0.15;;;18.00;99.90;;;;;;5090241;28;20059;-86
2022/06/04 09:24:10;;;;;;;0.35;0.30;;;18.00;99.90;;;;;;5056026;28;20040;-88
2022/06/04 09:27:02;;;;;;;0.20;0.20;;;18.00;99.90;;;;;;5057984;28;20120;-87
2022/06/04 09:29:29;;;;;;;0.20;0.20;;;18.10;99.90;;;;;;5068179;28;20504;-87
2022/06/04 09:32:19;;;;;;;0.45;0.40;;;18.00;99.90;;;;;;5070615;28;20043;-86
2022/06/04 09:34:50;;;;;;;0.55;0.40;;;17.80;99.90;;;;;;5065616;28;20501;-85
2022/06/04 09:37:17;;;;;;;0.25;0.13;;;17.90;99.90;;;;;;5089634;28;20045;-86
2022/06/04 09:39:47;;;;;;;0.60;0.40;;;18.00;99.90;;;;;;5072819;28;20106;-88
2022/06/04 09:42:13;;;;;;;0.17;0.17;;;18.10;99.90;;;;;;5093935;28;20036;-86
2022/06/04 09:44:57;;;;;;;0.52;0.32;;;18.30;99.90;;;;;;5088861;28;20049;-86
2022/06/04 09:47:26;;;;;;;0.47;0.30;;;18.40;99.90;;;;;;5061719;28;20052;-86
2022/06/04 09:50:00;;;;;;;0.32;0.30;;;18.40;99.90;;;;;;5088883;28;20036;-86
2022/06/04 09:52:36;;;;;;;0.68;0.40;;;18.50;99.90;;;;;;5088087;28;20040;-85
2022/06/04 09:55:22;;;;;;;0.20;0.20;;;18.60;99.90;;;;;;5106415;28;20044;-85
2022/06/04 09:58:18;;;;;;;0.20;0.20;;;18.80;99.90;;;;;;5105867;28;20051;-85
2022/06/04 10:00:54;;;;;;;0.30;0.30;;;18.80;99.90;;;;;;5077939;28;20079;-86
2022/06/04 10:03:21;;;;;;;0.50;0.43;;;18.70;99.90;;;;;;5079665;28;20035;-85
2022/06/04 10:05:52;;;;;;;0.65;0.45;;;18.90;99.90;;;;;;5031575;28;20036;-87
2022/06/04 10:08:26;;;;;;;0.40;0.30;;;19.00;99.90;;;;;;5087679;28;20551;-86
2022/06/04 10:11:03;;;;;;;0.20;0.20;;;19.00;99.90;;;;;;5056441;28;20084;-86
2022/06/04 10:13:48;;;;;;;0.60;0.32;;;18.90;99.90;;;;;;5075799;28;20090;-87
2022/06/04 10:16:19;;;;;;;0.80;0.40;;;19.00;99.90;;;;;;5080659;28;20129;-87
2022/06/04 10:19:00;;;;;;;0.88;0.50;;;19.10;99.90;;;;;;5088132;28;20052;-86
2022/06/04 10:21:36;;;;;;;0.15;0.13;;;19.20;99.90;;;;;;5071368;28;20067;-86
2022/06/04 10:24:22;;;;;;;0.40;0.40;;;19.20;99.90;;;;;;5072531;28;20033;-87
2022/06/04 10:26:57;;;;;;;0.40;0.30;;;19.10;99.90;;;;;;5068126;28;20048;-87
2022/06/04 10:30:01;;;;;;;0.25;0.25;;;19.20;99.90;;;;;;5071350;28;20098;-86
2022/06/04 10:32:38;;;;;;;0.30;0.22;;;19.40;99.90;;;;;;5105891;28;20129;-86
2022/06/04 10:35:25;;;;;;;0.45;0.38;;;19.60;99.90;;;;;;5086657;28;20040;-88
2022/06/04 10:37:51;;;;;;;0.45;0.30;;;19.90;99.90;;;;;;5064120;28;20128;-89
2022/06/04 10:40:40;;;;;;;0.47;0.40;;;20.10;99.90;;;;;;5088562;28;20132;-85
2022/06/04 10:43:29;;;;;;;0.15;0.10;;;20.10;99.90;;;;;;5072261;28;20105;-86
2022/06/04 10:46:28;;;;;;;0.57;0.30;;;20.20;99.90;;;;;;5072237;28;20406;-80
2022/06/04 10:49:04;;;;;;;0.35;0.20;;;20.20;99.90;;;;;;5085898;28;20036;-81
2022/06/04 10:51:42;;;;;;;0.60;0.30;;;20.40;99.90;;;;;;5060091;28;20068;-87
2022/06/04 10:54:24;;;;;;;0.20;0.20;;;20.50;99.90;;;;;;5093261;28;20043;-83
2022/06/04 10:57:16;;;;;;;0.20;0.20;;;20.40;99.90;;;;;;5063218;28;20123;-84
2022/06/04 10:59:50;;;;;;;0.32;0.30;;;20.50;99.90;;;;;;5067613;28;20040;-82
2022/06/04 11:02:26;;;;;;;0.20;0.20;;;20.40;99.90;;;;;;5074128;28;20063;-85
2022/06/04 11:04:54;;;;;;;0.47;0.30;;;20.50;99.90;;;;;;5071010;28;20123;-84
2022/06/04 11:07:52;;;;;;;0.60;0.40;;;20.60;99.90;;;;;;5076419;28;20043;-85
2022/06/04 11:10:24;;;;;;;1.05;0.50;;;20.60;99.90;;;;;;5076106;28;20447;-87
2022/06/04 11:13:02;;;;;;;0.43;0.30;;;20.70;99.90;;;;;;5076614;28;20039;-87
2022/06/04 11:15:35;;;;;;;0.45;0.20;;;20.80;99.90;;;;;;5076415;28;20036;-87
2022/06/04 11:18:12;;;;;;;0.20;0.20;;;20.80;99.90;;;;;;5084091;28;20090;-88
2022/06/04 11:20:45;;;;;;;0.47;0.25;;;20.90;99.90;;;;;;5077578;28;20048;-86
2022/06/04 11:23:25;;;;;;;0.20;0.20;;;20.70;99.90;;;;;;5078019;28;20040;-87
2022/06/04 11:25:58;;;;;;;0.50;0.40;;;20.60;99.90;;;;;;5083111;28;20041;-87
2022/06/04 11:28:27;;;;;;;0.22;0.22;;;20.80;99.90;;;;;;5066922;28;20040;-87
2022/06/04 11:31:07;;;;;;;0.20;0.20;;;20.80;99.90;;;;;;5096643;28;20032;-88
2022/06/04 11:33:57;;;;;;;0.65;0.55;;;20.70;99.90;;;;;;5080919;28;20051;-87
2022/06/04 11:36:44;;;;;;;0.77;0.30;;;20.80;99.90;;;;;;5089535;28;20075;-87
2022/06/04 11:39:48;;;;;;;0.40;0.40;;;20.80;99.90;;;;;;5075679;28;20051;-87
2022/06/04 11:42:44;;;;;;;0.30;0.30;;;20.60;99.90;;;;;;5064372;28;20040;-87
2022/06/04 11:45:30;;;;;;;0.40;0.30;;;20.70;99.90;;;;;;5057933;28;20055;-88
2022/06/04 11:48:00;;;;;;;0.50;0.32;;;20.70;99.90;;;;;;5071967;28;20072;-87
2022/06/04 11:50:37;;;;;;;0.60;0.40;;;20.60;99.90;;;;;;5083167;28;20048;-87
2022/06/04 11:53:32;;;;;;;0.20;0.20;;;20.60;99.90;;;;;;5069471;28;20036;-87
2022/06/04 11:56:06;;;;;;;0.40;0.35;;;20.70;99.90;;;;;;5072667;28;20091;-88
2022/06/04 11:58:47;;;;;;;1.05;0.50;;;20.80;99.90;;;;;;5055797;28;20410;-86
2022/06/04 12:01:29;;;;;;;0.65;0.40;;;20.60;99.90;;;;;;5074479;28;20076;-87
2022/06/04 12:04:29;;;;;;;0.82;0.40;;;20.80;99.90;;;;;;5075189;28;20049;-87
2022/06/04 12:07:13;;;;;;;0.63;0.50;;;20.60;99.90;;;;;;5071212;28;20399;-87
2022/06/04 12:09:55;;;;;;;0.50;0.40;;;20.40;99.90;;;;;;5075431;28;20040;-87
2022/06/04 12:12:28;;;;;;;0.43;0.40;;;20.30;99.90;;;;;;5091125;28;20056;-87
2022/06/04 12:15:23;;;;;;;0.35;0.30;;;20.30;99.90;;;;;;5060109;28;20037;-88
2022/06/04 12:17:55;;;;;;;0.45;0.30;;;20.50;99.90;;;;;;5072909;28;20501;-88
2022/06/04 12:26:21;;;;;;;0.30;0.30;;;20.90;99.90;;;;;;5096388;28;20044;-87
2022/06/04 12:28:48;;;;;;;0.68;0.32;;;20.70;99.90;;;;;;5091776;28;20044;-87
2022/06/04 12:31:34;;;;;;;0.30;0.30;;;20.60;99.90;;;;;;5057812;28;20489;-87
2022/06/04 12:34:21;;;;;;;0.43;0.30;;;20.70;99.90;;;;;;5074342;28;20120;-90
2022/06/04 12:36:52;;;;;;;0.43;0.40;;;20.80;99.90;;;;;;5084754;28;20051;-87
2022/06/04 12:39:49;;;;;;;0.63;0.50;;;20.90;99.90;;;;;;5042308;28;20123;-88
2022/06/04 12:42:23;;;;;;;0.88;0.40;;;20.80;99.90;;;;;;5038145;28;20607;-87
2022/06/04 12:45:05;;;;;;;0.77;0.50;;;20.80;99.90;;;;;;5074953;28;20039;-86
2022/06/04 12:47:34;;;;;;;0.63;0.55;;;20.50;99.90;;;;;;5074614;28;20052;-85
2022/06/04 12:50:18;;;;;;;0.40;0.30;;;20.60;99.90;;;;;;5081658;28;20095;-89
2022/06/04 12:53:07;;;;;;;0.80;0.52;;;20.60;99.90;;;;;;5091330;28;20051;-89
2022/06/04 12:55:54;;;;;;;1.02;0.35;;;20.50;99.90;;;;;;5079037;28;20507;-86
2022/06/04 12:58:30;;;;;;;0.32;0.30;;;20.50;99.90;;;;;;5090949;28;20043;-86
2022/06/04 13:01:15;;;;;;;0.47;0.40;;;20.30;99.90;;;;;;5074027;28;20124;-87
2022/06/04 13:03:44;;;;;;;0.30;0.30;;;20.30;99.90;;;;;;5084698;28;20033;-85
2022/06/04 13:06:49;;;;;;;0.28;0.25;;;20.20;99.90;;;;;;5067271;28;20366;-85
2022/06/04 13:09:39;;;;;;;0.52;0.30;;;20.30;99.90;;;;;;5051904;28;20071;-89
2022/06/04 13:12:30;;;;;;;0.20;0.20;;;20.40;99.90;;;;;;5091013;28;20129;-87
2022/06/04 13:15:15;;;;;;;0.55;0.30;;;20.30;99.90;;;;;;5090866;28;20099;-88
2022/06/04 13:17:50;;;;;;;0.55;0.40;;;20.30;99.90;;;;;;5090374;28;20123;-88
2022/06/04 13:20:30;;;;;;;;;;;20.10;99.90;;;;;;5090809;28;20078;-88
2022/06/04 13:23:38;;;;;;;0.40;0.40;;;20.00;99.90;;;;;;5090834;28;20270;-88
2022/06/04 13:26:38;;;;;;;0.30;0.30;;;19.90;99.90;;;;;;5084539;28;20047;-87
2022/06/04 13:29:23;;;;;;;0.65;0.47;;;19.80;99.90;;;;;;5082670;28;20041;-87
2022/06/04 13:31:53;;;;;;;0.93;0.38;;;20.10;99.90;;;;;;5090432;28;20036;-87
2022/06/04 13:34:23;;;;;;;0.90;0.50;;;20.30;99.90;;;;;;5073645;28;20072;-87
2022/06/04 13:36:59;;;;;;;0.73;0.47;;;20.30;99.90;;;;;;5081271;28;20044;-87
2022/06/04 13:39:27;;;;;;;0.38;0.38;;;20.30;99.90;;;;;;5057101;28;20044;-88